Time;durP1;ratioP1;P1;durP2;ratioP2;P2;SDS_P1;SDS_P2;PMS_P1;PMS_P2;Temp;Humidity;BMP_temperature;BMP_pressure;BME280_temperature;BME280_humidity;BME280_pressure;Samples;Min_cycle;Max_cycle;Signal;HPM_P1;HPM_P2
2022/07/25 00:00:10;;;;;;;6.75;2.17;;;;;;;-144.47;35.47;53005.06;5049620;28;20033;-68
2022/07/25 00:02:36;;;;;;;6.20;2.58;;;;;;;-144.47;35.46;53030.88;5031444;28;20367;-69
2022/07/25 00:05:02;;;;;;;9.00;2.42;;;;;;;-144.47;35.63;53026.91;5030948;28;20169;-67
2022/07/25 00:07:28;;;;;;;10.02;2.85;;;;;;;-144.47;35.64;53007.03;5028895;28;20021;-68
2022/07/25 00:09:53;;;;;;;4.60;2.30;;;;;;;-144.47;35.67;53052.72;5029614;28;20032;-67
2022/07/25 00:12:20;;;;;;;4.70;2.17;;;;;;;-144.47;35.76;53056.69;5030480;28;20351;-69
2022/07/25 00:14:45;;;;;;;4.57;2.40;;;;;;;-144.47;35.91;53011.00;5009208;28;20053;-68
2022/07/25 00:17:11;;;;;;;5.28;2.53;;;;;;;-144.47;36.12;53036.84;5027470;28;20390;-68
2022/07/25 00:19:37;;;;;;;4.22;2.20;;;;;;;-144.47;36.14;53062.66;5030221;28;20147;-67
2022/07/25 00:22:02;;;;;;;5.05;2.42;;;;;;;-144.47;36.30;53072.59;5029588;28;20033;-68
2022/07/25 00:24:27;;;;;;;6.70;2.40;;;;;;;-144.47;36.43;53034.84;5030705;28;20158;-68
2022/07/25 00:26:53;;;;;;;5.30;2.45;;;;;;;-144.47;36.67;53030.88;5029573;28;20100;-68
2022/07/25 00:29:19;;;;;;;10.00;2.67;;;;;;;-144.47;36.58;53042.78;5030285;28;20118;-67
2022/07/25 00:31:44;;;;;;;7.32;2.35;;;;;;;-144.47;36.75;53044.78;5030399;28;20443;-69
2022/07/25 00:34:09;;;;;;;5.05;2.38;;;;;;;-144.47;36.90;53042.78;5030134;28;20016;-68
2022/07/25 00:36:35;;;;;;;4.40;2.30;;;;;;;-144.47;37.05;53038.81;5012501;28;20021;-67
2022/07/25 00:39:00;;;;;;;4.88;2.65;;;;;;;-144.47;37.06;53056.69;5038624;28;20039;-68
2022/07/25 00:41:26;;;;;;;5.18;2.45;;;;;;;-144.47;37.20;53048.75;5050132;28;20477;-67
2022/07/25 00:43:51;;;;;;;6.07;3.28;;;;;;;-144.47;37.34;53078.53;5049232;28;20025;-68
2022/07/25 00:46:17;;;;;;;7.38;2.95;;;;;;;-144.47;37.38;53072.59;5046342;28;20052;-67
2022/07/25 00:48:43;;;;;;;8.65;2.60;;;;;;;-144.47;37.52;53074.56;5029926;28;20060;-68
2022/07/25 00:51:10;;;;;;;5.53;2.63;;;;;;;-144.47;37.72;53068.63;5030104;28;20111;-68
2022/07/25 00:53:37;;;;;;;5.65;2.65;;;;;;;-144.47;37.75;53054.72;5028833;28;20470;-67
2022/07/25 00:56:03;;;;;;;6.30;3.03;;;;;;;-144.47;38.03;53088.47;5029469;28;20037;-67
2022/07/25 00:58:28;;;;;;;7.97;2.70;;;;;;;-144.47;38.12;53050.75;5029077;28;20633;-68
2022/07/25 01:00:54;;;;;;;5.53;2.78;;;;;;;-144.47;38.32;53050.75;5030015;28;20036;-68
2022/07/25 01:03:20;;;;;;;10.02;2.83;;;;;;;-144.47;38.39;53040.81;5025370;28;20022;-68
2022/07/25 01:05:45;;;;;;;6.50;2.55;;;;;;;-144.47;38.64;53036.84;5008695;28;20109;-66
2022/07/25 01:08:12;;;;;;;6.60;2.63;;;;;;;-144.47;38.71;53026.91;5018421;28;20024;-67
2022/07/25 01:10:37;;;;;;;5.45;2.70;;;;;;;-144.47;38.90;53030.88;5029512;28;20035;-67
2022/07/25 01:13:06;;;;;;;7.80;3.00;;;;;;;-144.47;38.95;53050.75;5029840;28;20100;-68
2022/07/25 01:15:32;;;;;;;8.85;3.00;;;;;;;-144.47;39.09;53066.63;5029439;28;20494;-67
2022/07/25 01:17:57;;;;;;;6.57;3.28;;;;;;;-144.47;39.19;53096.41;5028641;28;20045;-68
2022/07/25 01:20:25;;;;;;;8.18;3.10;;;;;;;-144.47;39.36;53066.63;5033757;28;20063;-68
2022/07/25 01:22:52;;;;;;;6.95;3.00;;;;;;;-144.47;39.45;53046.75;5037022;28;20022;-68
2022/07/25 01:25:18;;;;;;;10.95;3.75;;;;;;;-144.47;39.61;53046.75;5028074;28;20026;-68
2022/07/25 01:27:44;;;;;;;9.98;3.55;;;;;;;-144.47;39.81;53048.75;5028774;28;20037;-68
2022/07/25 01:30:12;;;;;;;6.55;3.22;;;;;;;-144.47;40.04;53032.88;5027807;28;20069;-68
2022/07/25 01:32:37;;;;;;;7.50;3.28;;;;;;;-144.47;40.07;53058.69;5029238;28;20013;-68
2022/07/25 01:35:05;;;;;;;8.70;4.50;;;;;;;-144.47;40.17;53110.31;5021330;28;20351;-68
2022/07/25 01:37:31;;;;;;;10.88;3.22;;;;;;;-144.47;40.39;53074.56;5026182;28;20033;-68
2022/07/25 01:39:56;;;;;;;9.13;3.47;;;;;;;-144.47;40.41;53066.63;5029168;28;20422;-67
2022/07/25 01:42:22;;;;;;;8.02;3.60;;;;;;;-144.47;40.67;53034.84;5029405;28;20025;-67
2022/07/25 01:44:47;;;;;;;6.97;3.33;;;;;;;-144.47;40.71;53060.66;5029354;28;20492;-67
2022/07/25 01:47:13;;;;;;;10.20;4.28;;;;;;;-144.47;40.93;53080.53;5027442;28;20021;-67
2022/07/25 01:49:38;;;;;;;11.70;3.22;;;;;;;-144.47;40.99;53108.34;5008530;28;20018;-67
2022/07/25 01:52:04;;;;;;;9.15;4.40;;;;;;;-144.47;41.13;53078.53;5020626;28;20030;-68
2022/07/25 01:54:30;;;;;;;9.20;3.80;;;;;;;-144.47;41.18;53082.53;5027472;28;20029;-68
2022/07/25 01:56:56;;;;;;;12.88;4.00;;;;;;;-144.47;41.30;53030.88;5028428;28;20033;-68
2022/07/25 01:59:21;;;;;;;7.50;3.70;;;;;;;-144.47;41.42;53092.44;5029031;28;20033;-67
2022/07/25 02:01:47;;;;;;;7.65;3.47;;;;;;;-144.47;41.49;53076.56;5027679;28;20108;-68
2022/07/25 02:04:12;;;;;;;7.25;3.97;;;;;;;-144.47;41.63;53038.81;5028719;28;20455;-66
2022/07/25 02:06:40;;;;;;;7.53;4.03;;;;;;;-144.47;41.68;53052.72;5028305;28;20108;-68
2022/07/25 02:09:06;;;;;;;8.05;3.80;;;;;;;-144.47;41.80;53088.47;5028008;28;20021;-67
2022/07/25 02:11:31;;;;;;;9.82;4.22;;;;;;;-144.47;41.88;53072.59;5029266;28;20026;-67
2022/07/25 02:13:57;;;;;;;7.68;3.35;;;;;;;-144.47;42.15;53110.31;5028576;28;20065;-69
2022/07/25 02:16:22;;;;;;;10.18;4.05;;;;;;;-144.47;42.12;53070.59;5028326;28;20131;-70
2022/07/25 02:18:47;;;;;;;10.50;4.03;;;;;;;-144.47;42.25;53086.50;5028514;28;20025;-67
2022/07/25 02:21:13;;;;;;;12.05;3.65;;;;;;;-144.47;42.30;53070.59;5028961;28;20017;-67
2022/07/25 02:23:39;;;;;;;7.82;3.60;;;;;;;-144.47;42.52;53048.75;5024696;28;20017;-68
2022/07/25 02:26:04;;;;;;;13.20;4.13;;;;;;;-144.47;42.53;53094.44;5028796;28;20025;-68
2022/07/25 02:28:30;;;;;;;10.48;4.13;;;;;;;-144.47;42.75;53066.63;5028150;28;20029;-67
2022/07/25 02:30:55;;;;;;;13.30;4.13;;;;;;;-144.47;42.80;53068.63;5029204;28;20073;-69
2022/07/25 02:33:21;;;;;;;10.82;3.63;;;;;;;-144.47;42.97;53082.53;5029367;28;20056;-69
2022/07/25 02:35:47;;;;;;;9.70;3.97;;;;;;;-144.47;43.17;53112.31;5028874;28;20379;-67
2022/07/25 02:38:18;;;;;;;14.85;4.00;;;;;;;-144.47;43.26;53102.38;5024132;28;20654;-69
2022/07/25 02:40:45;;;;;;;7.47;3.95;;;;;;;-144.47;43.33;53070.59;5028683;28;20065;-70
2022/07/25 02:43:10;;;;;;;11.13;4.15;;;;;;;-144.47;43.53;53042.78;5032492;28;20104;-67
2022/07/25 02:45:36;;;;;;;7.90;3.75;;;;;;;-144.47;43.59;53084.50;5030928;28;20014;-69
2022/07/25 02:48:01;;;;;;;7.43;4.32;;;;;;;-144.47;43.63;53080.53;5035182;28;20048;-68
2022/07/25 02:50:27;;;;;;;13.98;4.63;;;;;;;-144.47;43.83;53100.41;5040734;28;20017;-68
2022/07/25 02:52:52;;;;;;;9.98;4.25;;;;;;;-144.47;43.77;53070.59;5031246;28;20484;-68
2022/07/25 02:55:17;;;;;;;9.70;4.22;;;;;;;-144.47;43.92;53098.41;5032216;28;20028;-69
2022/07/25 02:57:43;;;;;;;15.32;4.28;;;;;;;-144.47;44.01;53056.69;5049700;28;20033;-68
2022/07/25 03:00:09;;;;;;;7.95;3.92;;;;;;;-144.47;44.08;53082.53;5050478;28;20443;-67
2022/07/25 03:02:34;;;;;;;10.65;4.28;;;;;;;-144.47;44.24;53098.41;5047137;28;20028;-67
2022/07/25 03:05:00;;;;;;;8.25;4.43;;;;;;;-144.47;44.36;53096.41;5031924;28;20033;-67
2022/07/25 03:07:25;;;;;;;11.30;4.28;;;;;;;-144.47;44.35;53086.50;5029898;28;20113;-68
2022/07/25 03:09:50;;;;;;;12.05;4.57;;;;;;;-144.47;44.56;53044.78;5030609;28;20052;-67
2022/07/25 03:12:15;;;;;;;15.27;5.13;;;;;;;-144.47;44.50;53078.53;5027679;28;20068;-69
2022/07/25 03:14:41;;;;;;;10.65;4.50;;;;;;;-144.47;44.51;53084.50;5033094;28;20048;-68
2022/07/25 03:17:06;;;;;;;10.73;4.38;;;;;;;-144.47;44.61;53090.47;5050694;28;20497;-68
2022/07/25 03:19:31;;;;;;;9.52;4.20;;;;;;;-144.47;44.58;53112.31;5050717;28;20207;-68
2022/07/25 03:21:57;;;;;;;8.95;4.88;;;;;;;-144.47;44.62;53120.25;5046855;28;20009;-69
2022/07/25 03:24:22;;;;;;;11.50;4.22;;;;;;;-144.47;44.79;53086.50;5031371;28;20105;-68
2022/07/25 03:26:48;;;;;;;9.98;4.10;;;;;;;-144.47;44.95;53110.31;5030826;28;20024;-68
2022/07/25 03:29:13;;;;;;;9.02;3.95;;;;;;;-144.47;45.00;53092.44;5029926;28;20034;-68
2022/07/25 03:31:38;;;;;;;6.55;4.05;;;;;;;-144.47;45.11;53058.69;5031690;28;20093;-68
2022/07/25 03:34:04;;;;;;;9.00;3.95;;;;;;;-144.47;45.28;53114.31;5025722;28;20029;-68
2022/07/25 03:36:30;;;;;;;16.63;4.53;;;;;;;-144.47;45.38;53078.53;5028005;28;20040;-68
2022/07/25 03:38:56;;;;;;;11.35;4.28;;;;;;;-144.47;45.56;53050.75;5030107;22;20041;-68
2022/07/25 03:41:22;;;;;;;10.48;5.43;;;;;;;-144.47;45.71;53066.63;5010073;28;20030;-66
2022/07/25 03:43:47;;;;;;;9.77;4.35;;;;;;;-144.47;45.79;53066.63;5010194;28;20041;-67
2022/07/25 03:46:13;;;;;;;8.50;4.55;;;;;;;-144.47;45.80;53070.59;4992745;28;20048;-67
2022/07/25 03:48:38;;;;;;;14.15;5.03;;;;;;;-144.47;45.98;53066.63;5000554;28;20029;-66
2022/07/25 03:51:04;;;;;;;9.60;4.93;;;;;;;-144.47;46.07;53060.66;5009060;28;20036;-67
2022/07/25 03:53:29;;;;;;;10.35;4.55;;;;;;;-144.47;46.06;53100.41;5010172;28;20030;-69
2022/07/25 03:55:55;;;;;;;8.27;4.43;;;;;;;-144.47;46.27;53084.50;5011047;28;20030;-69
2022/07/25 03:58:20;;;;;;;9.40;4.60;;;;;;;-144.47;46.39;53104.38;5010143;28;20122;-67
2022/07/25 04:00:47;;;;;;;10.05;4.70;;;;;;;-144.47;46.63;53098.41;5028506;28;20053;-70
2022/07/25 04:03:13;;;;;;;9.00;4.30;;;;;;;-144.47;46.89;53070.59;5026384;28;20044;-69
2022/07/25 04:05:39;;;;;;;9.77;4.80;;;;;;;-144.47;46.68;53092.44;5011411;28;20237;-67
2022/07/25 04:08:04;;;;;;;10.88;4.78;;;;;;;-144.47;46.76;53102.38;5024636;28;20666;-69
2022/07/25 04:10:30;;;;;;;8.75;5.05;;;;;;;-144.47;46.92;53090.47;5010869;28;20109;-66
2022/07/25 04:12:55;;;;;;;14.40;5.47;;;;;;;-144.47;46.87;53124.22;5001959;28;20399;-68
2022/07/25 04:15:21;;;;;;;11.02;5.07;;;;;;;-144.47;46.96;53100.41;4989497;28;20022;-65
2022/07/25 04:17:46;;;;;;;11.05;5.03;;;;;;;-144.47;47.27;53080.53;5004748;28;20022;-67
2022/07/25 04:20:12;;;;;;;11.07;5.30;;;;;;;-144.47;47.19;53132.19;5005585;28;20448;-69
2022/07/25 04:22:38;;;;;;;9.60;5.55;;;;;;;-144.47;47.27;53144.09;4989612;28;20018;-66
2022/07/25 04:25:05;;;;;;;11.32;5.05;;;;;;;-144.47;47.31;53098.41;4990886;28;20477;-66
2022/07/25 04:27:30;;;;;;;10.18;4.90;;;;;;;-144.47;47.31;53088.47;5005112;28;20034;-67
2022/07/25 04:29:55;;;;;;;10.10;5.60;;;;;;;-144.47;47.48;53086.50;5005894;28;20391;-66
2022/07/25 04:32:21;;;;;;;12.02;4.90;;;;;;;-144.47;47.54;53076.56;4991204;28;20556;-68
2022/07/25 04:34:46;;;;;;;9.52;5.00;;;;;;;-144.47;47.47;53098.41;4991125;28;20022;-66
2022/07/25 04:37:12;;;;;;;13.45;6.32;;;;;;;-144.47;47.46;53088.47;4988761;28;20488;-70
2022/07/25 04:39:37;;;;;;;9.82;5.03;;;;;;;-144.47;47.48;53116.28;5005754;28;20092;-66
2022/07/25 04:42:03;;;;;;;11.43;5.13;;;;;;;-144.47;47.54;53142.09;5005578;28;20033;-68
2022/07/25 04:44:28;;;;;;;15.93;5.50;;;;;;;-144.47;47.39;53092.44;4988731;28;20018;-66
2022/07/25 04:46:54;;;;;;;20.10;5.70;;;;;;;-144.47;47.43;53114.31;4989611;28;20286;-68
2022/07/25 04:49:19;;;;;;;14.55;5.47;;;;;;;-144.47;47.27;53086.50;4989733;28;20470;-66
2022/07/25 04:51:44;;;;;;;10.88;6.00;;;;;;;-144.47;47.33;53078.53;4990106;28;20022;-68
2022/07/25 04:54:10;;;;;;;10.70;5.80;;;;;;;-144.47;47.19;53088.47;4988112;28;20034;-68
2022/07/25 04:56:35;;;;;;;13.38;5.95;;;;;;;-144.47;47.11;53094.44;5005039;28;20149;-66
2022/07/25 04:59:01;;;;;;;11.70;5.55;;;;;;;-144.47;47.17;53114.31;5007777;28;20325;-70
2022/07/25 05:01:26;;;;;;;10.73;5.50;;;;;;;-144.47;47.04;53074.56;5026756;28;20502;-67
2022/07/25 05:03:51;;;;;;;19.73;6.43;;;;;;;-144.47;46.96;53106.34;5011316;28;20023;-70
2022/07/25 05:06:18;;;;;;;16.60;5.97;;;;;;;-144.47;46.88;53086.50;5025396;28;20487;-66
2022/07/25 05:08:43;;;;;;;13.27;5.63;;;;;;;-144.47;46.79;53064.66;5009319;28;20022;-71
2022/07/25 05:11:09;;;;;;;12.00;6.75;;;;;;;-144.47;46.76;53084.50;5026062;28;20028;-68
2022/07/25 05:13:34;;;;;;;10.38;5.88;;;;;;;-144.47;46.78;53084.50;4994474;28;20046;-66
2022/07/25 05:16:00;;;;;;;12.98;6.03;;;;;;;-144.47;46.52;53094.44;4988459;28;20117;-67
2022/07/25 05:18:27;;;;;;;10.70;5.43;;;;;;;-144.47;46.67;53090.47;4989042;28;20054;-69
2022/07/25 05:20:52;;;;;;;10.30;5.72;;;;;;;-144.47;46.68;53092.44;4988416;28;20054;-70
2022/07/25 05:23:18;;;;;;;13.05;5.90;;;;;;;-144.47;46.60;53106.34;5003846;28;20034;-69
2022/07/25 05:25:43;;;;;;;11.68;6.90;;;;;;;-144.47;46.66;53078.53;4990129;28;20092;-68
2022/07/25 05:28:09;;;;;;;9.65;5.43;;;;;;;-144.47;46.49;53070.59;4989182;28;20026;-69
2022/07/25 05:30:34;;;;;;;14.65;6.50;;;;;;;-144.47;46.39;53066.63;5004442;28;20104;-67
2022/07/25 05:32:59;;;;;;;12.43;6.28;;;;;;;-144.47;46.24;53062.66;5005413;28;20065;-68
2022/07/25 05:35:25;;;;;;;16.00;6.68;;;;;;;-144.47;46.17;53044.78;4989392;28;20053;-67
2022/07/25 05:37:51;;;;;;;19.13;7.05;;;;;;;-144.47;46.12;53068.63;5002984;28;20019;-69
2022/07/25 05:40:18;;;;;;;13.38;5.90;;;;;;;-144.47;46.00;53046.75;4988934;28;20022;-67
2022/07/25 05:42:43;;;;;;;12.40;6.40;;;;;;;-144.47;45.78;53084.50;5005406;28;20026;-69
2022/07/25 05:45:09;;;;;;;10.48;5.68;;;;;;;-144.47;45.81;53090.47;4996901;28;20097;-68
2022/07/25 05:47:34;;;;;;;14.10;6.10;;;;;;;-144.47;45.62;53054.72;5023512;28;20436;-65
2022/07/25 05:50:00;;;;;;;11.73;6.03;;;;;;;-144.47;45.55;53052.72;5024831;28;20424;-68
2022/07/25 05:52:25;;;;;;;12.55;6.03;;;;;;;-144.47;45.55;53098.41;4997700;28;20034;-70
2022/07/25 05:54:51;;;;;;;14.60;6.80;;;;;;;-144.47;45.51;53090.47;4990378;28;20429;-68
2022/07/25 05:57:16;;;;;;;13.60;6.35;;;;;;;-144.47;45.46;53084.50;5003914;28;20041;-65
2022/07/25 05:59:42;;;;;;;16.15;6.55;;;;;;;-144.47;45.28;53062.66;5004580;28;20022;-69
2022/07/25 06:02:07;;;;;;;13.95;6.07;;;;;;;-144.47;45.19;53098.41;4990275;28;20179;-69
2022/07/25 06:04:32;;;;;;;11.68;6.28;;;;;;;-144.47;45.23;53082.53;5023741;28;20029;-67
2022/07/25 06:06:58;;;;;;;12.63;6.22;;;;;;;-144.47;45.06;53086.50;5005945;28;20053;-71
2022/07/25 06:09:23;;;;;;;19.52;7.05;;;;;;;-144.47;44.91;53080.53;5008569;28;20428;-66
2022/07/25 06:11:49;;;;;;;13.23;6.55;;;;;;;-144.47;44.86;53018.97;5023567;28;20560;-70
2022/07/25 06:14:15;;;;;;;15.45;7.63;;;;;;;-144.47;44.64;53082.53;5003282;28;20440;-68
2022/07/25 06:16:41;;;;;;;23.23;6.47;;;;;;;-144.47;44.62;53064.66;4972553;28;20096;-69
2022/07/25 06:19:06;;;;;;;12.90;6.45;;;;;;;-144.47;44.36;53062.66;5008085;28;20022;-67
2022/07/25 06:21:32;;;;;;;15.98;6.70;;;;;;;-144.47;44.01;53068.63;4992575;28;20092;-70
2022/07/25 06:23:57;;;;;;;10.20;5.88;;;;;;;-144.47;43.98;53064.66;4992810;28;20022;-69
2022/07/25 06:26:23;;;;;;;19.55;7.05;;;;;;;-144.47;43.84;53096.41;4991771;28;20019;-66
2022/07/25 06:28:49;;;;;;;13.35;6.22;;;;;;;-144.47;43.79;53038.81;4993227;28;20547;-67
2022/07/25 06:31:15;;;;;;;18.05;6.57;;;;;;;-144.47;43.57;53028.88;5007935;28;20022;-67
2022/07/25 06:33:40;;;;;;;16.33;6.70;;;;;;;-144.47;43.43;53084.50;5006503;28;20126;-67
2022/07/25 06:36:06;;;;;;;16.55;6.65;;;;;;;-144.47;43.06;53060.66;4992848;28;20053;-69
2022/07/25 06:38:31;;;;;;;16.90;6.00;;;;;;;-144.47;42.84;53070.59;4989542;28;20372;-66
2022/07/25 06:40:57;;;;;;;12.73;6.60;;;;;;;-144.47;42.72;53062.66;5007783;28;20019;-67
2022/07/25 06:43:22;;;;;;;11.85;6.38;;;;;;;-144.47;42.64;53042.78;4992454;28;20038;-66
2022/07/25 06:45:48;;;;;;;11.32;6.20;;;;;;;-144.47;42.55;53028.88;4991224;28;20030;-70
2022/07/25 06:48:14;;;;;;;16.50;6.68;;;;;;;-144.47;42.43;53060.66;4989861;28;20027;-69
2022/07/25 06:50:40;;;;;;;17.08;6.90;;;;;;;-144.47;42.31;53036.84;4992443;28;20086;-67
2022/07/25 06:53:05;;;;;;;17.45;6.90;;;;;;;-144.47;42.11;53016.97;4989877;28;20022;-69
2022/07/25 06:55:31;;;;;;;11.57;5.95;;;;;;;-144.47;42.21;53038.81;4991022;28;20117;-66
2022/07/25 06:57:56;;;;;;;16.75;5.82;;;;;;;-144.47;42.15;52995.13;4973650;28;20531;-69
2022/07/25 07:00:21;;;;;;;16.48;7.35;;;;;;;-144.47;42.15;53016.97;4992584;28;20338;-66
2022/07/25 07:03:00;;;;;;;13.48;7.50;;;;;;;-144.47;41.95;53026.91;4992141;28;20590;-69
2022/07/25 07:05:30;;;;;;;14.13;6.13;;;;;;;-144.47;41.87;53028.88;4992244;28;20121;-69
2022/07/25 07:07:56;;;;;;;15.88;6.20;;;;;;;-144.47;41.50;53022.94;5004882;28;20034;-69
2022/07/25 07:10:22;;;;;;;19.33;7.28;;;;;;;-144.47;41.43;53042.78;4991015;28;20030;-69
2022/07/25 07:12:49;;;;;;;13.77;6.07;;;;;;;-144.47;41.48;53022.94;5007460;28;20033;-69
2022/07/25 07:15:15;;;;;;;13.35;6.63;;;;;;;-144.47;41.24;53018.97;4990755;28;20030;-67
2022/07/25 07:17:40;;;;;;;21.02;6.95;;;;;;;-144.47;40.99;53026.91;4990883;28;20092;-68
2022/07/25 07:20:07;;;;;;;20.30;6.88;;;;;;;-144.47;40.78;52983.22;4990579;28;20026;-66
2022/07/25 07:22:45;;;;;;;11.75;7.05;;;;;;;-144.47;40.68;53011.00;4992090;28;20061;-68
2022/07/25 07:25:16;;;;;;;24.88;7.20;;;;;;;-144.47;40.56;52999.09;5006646;28;20073;-69
2022/07/25 07:27:42;;;;;;;19.02;6.50;;;;;;;-144.47;40.41;53034.84;5005795;28;20546;-70
2022/07/25 07:30:08;;;;;;;11.75;6.22;;;;;;;-144.47;40.00;53034.84;5006793;28;20030;-69
2022/07/25 07:32:34;;;;;;;16.90;6.72;;;;;;;-144.47;40.01;53062.66;4990317;28;20072;-70
2022/07/25 07:35:00;;;;;;;20.73;6.68;;;;;;;-144.47;40.01;52991.16;5006719;28;20113;-70
2022/07/25 07:37:25;;;;;;;14.18;7.45;;;;;;;-144.47;39.67;52989.16;4989045;28;20205;-67
2022/07/25 07:39:51;;;;;;;17.02;7.05;;;;;;;-144.47;39.07;53016.97;4990563;28;20085;-67
2022/07/25 07:42:16;;;;;;;10.15;6.10;;;;;;;-144.47;38.32;52997.09;4974062;28;20116;-69
2022/07/25 07:44:41;;;;;;;10.43;6.78;;;;;;;-144.47;38.47;52977.25;4991708;28;20042;-68
2022/07/25 07:47:07;;;;;;;46.38;8.73;;;;;;;-144.47;38.14;52993.13;4989480;28;20026;-72
2022/07/25 07:49:32;;;;;;;15.27;7.05;;;;;;;-144.47;37.94;53011.00;4991260;28;20125;-69
2022/07/25 07:51:58;;;;;;;12.35;6.90;;;;;;;-144.47;37.60;52947.47;5005590;28;20081;-66
2022/07/25 07:57:07;;;;;;;15.00;6.20;;;;;;;-144.47;36.85;52965.34;5003486;28;20061;-67
2022/07/25 07:59:32;;;;;;;14.45;6.70;;;;;;;-144.47;36.58;52967.31;4989500;28;20120;-69
2022/07/25 08:01:58;;;;;;;15.40;6.97;;;;;;;-144.47;36.35;52979.22;4991370;28;20110;-68
2022/07/25 08:04:23;;;;;;;12.98;6.20;;;;;;;-144.47;36.13;52979.22;4974656;28;20570;-71
2022/07/25 08:06:49;;;;;;;11.68;6.72;;;;;;;-144.47;36.33;53001.09;4989845;28;20454;-69
2022/07/25 08:09:14;;;;;;;12.32;6.78;;;;;;;-144.47;36.04;52991.16;4996812;28;20076;-68
2022/07/25 08:11:40;;;;;;;9.80;6.30;;;;;;;-144.47;36.04;52963.34;5025810;28;20056;-68
2022/07/25 08:14:05;;;;;;;14.30;7.18;;;;;;;-144.47;35.82;52947.47;5007259;28;20511;-70
2022/07/25 08:16:32;;;;;;;14.43;7.13;;;;;;;-144.47;35.88;52975.25;5005312;28;20089;-68
2022/07/25 08:18:57;;;;;;;13.85;6.40;;;;;;;-144.47;35.70;52975.25;4990536;28;20018;-68
2022/07/25 08:21:23;;;;;;;10.57;6.40;;;;;;;-144.47;35.33;52945.47;4991107;28;20030;-67
2022/07/25 08:23:48;;;;;;;13.60;6.25;;;;;;;-144.47;35.24;52971.28;4971940;28;20080;-70
2022/07/25 08:26:13;;;;;;;12.10;6.57;;;;;;;-144.47;35.41;52949.44;4984736;28;20112;-67
2022/07/25 08:28:40;;;;;;;12.45;6.35;;;;;;;-144.47;34.91;52971.28;5025024;28;20050;-68
2022/07/25 08:31:05;;;;;;;11.48;6.10;;;;;;;-144.47;34.52;52927.59;5025295;28;20040;-65
2022/07/25 08:33:31;;;;;;;15.80;6.03;;;;;;;-144.47;34.60;52997.09;5015158;28;20101;-70
2022/07/25 08:35:57;;;;;;;14.95;6.45;;;;;;;-144.47;34.46;52943.47;5005204;28;20083;-67
2022/07/25 08:38:24;;;;;;;15.38;6.70;;;;;;;-144.47;34.06;52917.66;5003175;28;20237;-68
2022/07/25 08:40:51;;;;;;;9.95;5.85;;;;;;;-144.47;33.87;52967.31;4988927;28;20053;-70
2022/07/25 08:43:17;;;;;;;14.07;6.60;;;;;;;-144.47;33.46;52989.16;5005276;28;20022;-66
2022/07/25 08:45:47;;;;;;;12.75;6.65;;;;;;;-144.47;33.50;52939.50;5004958;28;20018;-69
2022/07/25 08:48:16;;;;;;;11.32;6.43;;;;;;;-144.47;33.13;52939.50;4988005;28;20112;-69
2022/07/25 08:50:42;;;;;;;12.75;6.65;;;;;;;-144.47;32.70;52929.59;5005158;28;20030;-70
2022/07/25 08:53:07;;;;;;;13.68;6.55;;;;;;;-144.47;32.53;52939.50;4987684;28;20144;-67
2022/07/25 08:55:33;;;;;;;7.82;5.88;;;;;;;-144.47;32.35;52961.34;5005207;28;20114;-70
2022/07/25 08:57:59;;;;;;;12.73;6.68;;;;;;;-144.47;32.30;52953.41;5004040;28;20138;-68
2022/07/25 09:00:30;;;;;;;10.95;5.80;;;;;;;-144.47;32.13;52931.56;4988751;28;20033;-68
2022/07/25 09:03:01;;;;;;;29.40;6.13;;;;;;;-144.47;31.91;52913.69;4991187;28;20227;-68
2022/07/25 09:05:29;;;;;;;10.55;6.68;;;;;;;-144.47;31.78;52951.44;5005443;28;20029;-70
2022/07/25 09:07:58;;;;;;;10.60;6.00;;;;;;;-144.47;31.86;52957.38;5011770;28;20395;-71
2022/07/25 09:10:27;;;;;;;10.35;5.88;;;;;;;-144.47;31.62;52931.56;5024867;28;20056;-69
2022/07/25 09:12:54;;;;;;;11.90;6.13;;;;;;;-144.47;31.50;52919.66;5002020;28;20488;-70
2022/07/25 09:15:49;;;;;;;13.77;6.20;;;;;;;-144.47;31.11;52905.75;4990294;28;20042;-67
2022/07/25 09:18:17;;;;;;;15.77;6.15;;;;;;;-144.47;31.00;52887.88;5004341;28;20097;-70
2022/07/25 09:20:52;;;;;;;16.33;5.40;;;;;;;-144.47;30.91;52889.84;4990790;28;20019;-67
2022/07/25 09:23:29;;;;;;;12.27;6.40;;;;;;;-144.47;30.72;52929.59;4986488;28;20031;-67
2022/07/25 09:26:03;;;;;;;16.20;6.75;;;;;;;-144.47;30.73;52941.50;5004766;28;20026;-67
2022/07/25 09:28:28;;;;;;;12.88;5.85;;;;;;;-144.47;30.64;52881.91;4989836;28;20053;-67
2022/07/25 09:30:59;;;;;;;16.90;6.18;;;;;;;-144.47;30.37;52931.56;4989533;28;20030;-69
2022/07/25 09:33:26;;;;;;;9.77;5.70;;;;;;;-144.47;30.08;52887.88;4998655;28;20029;-67
2022/07/25 09:35:53;;;;;;;19.73;5.90;;;;;;;-144.47;30.11;52939.50;5004007;28;20034;-70
2022/07/25 09:38:26;;;;;;;12.75;5.65;;;;;;;-144.47;30.15;52933.56;5002885;23;20021;-88
2022/07/25 09:40:56;;;;;;;20.10;5.75;;;;;;;-144.47;29.75;52927.59;5022598;28;20076;-88
2022/07/25 09:43:40;;;;;;;12.55;6.00;;;;;;;-144.47;29.77;52935.53;5035554;28;20546;-88
2022/07/25 09:46:09;;;;;;;12.65;6.10;;;;;;;-144.47;29.85;52903.75;5018332;28;20021;-88
2022/07/25 09:48:44;;;;;;;12.70;5.72;;;;;;;-144.47;29.64;52907.72;5015927;28;20120;-88
2022/07/25 09:51:12;;;;;;;9.73;5.65;;;;;;;-144.47;29.45;52907.72;5034043;28;20078;-87
2022/07/25 09:53:40;;;;;;;12.23;5.70;;;;;;;-144.47;29.09;52927.59;5017200;28;20115;-88
2022/07/25 09:56:28;;;;;;;11.02;5.97;;;;;;;-144.47;29.28;52862.06;5035804;28;20033;-87
2022/07/25 09:58:56;;;;;;;15.55;6.15;;;;;;;-144.47;28.61;52903.75;5000720;28;20029;-89
2022/07/25 10:01:41;;;;;;;13.35;5.93;;;;;;;-144.47;28.37;52925.59;5018213;28;20025;-87
2022/07/25 10:04:25;;;;;;;13.20;5.70;;;;;;;-144.47;28.78;52907.72;5018466;28;20044;-88
2022/07/25 10:07:05;;;;;;;16.33;5.85;;;;;;;-144.47;28.42;52852.13;5035845;28;20021;-86
2022/07/25 10:09:31;;;;;;;12.45;6.13;;;;;;;-144.47;28.08;52891.84;5019958;28;20031;-89
2022/07/25 10:12:08;;;;;;;10.70;5.07;;;;;;;-144.47;27.99;52862.06;5021485;28;20025;-87
2022/07/25 10:14:40;;;;;;;8.20;5.05;;;;;;;-144.47;27.88;52871.97;5023429;28;20040;-88
2022/07/25 10:17:20;;;;;;;12.35;5.50;;;;;;;-144.47;27.57;52889.84;5018247;28;20559;-87
2022/07/25 10:20:04;;;;;;;11.18;5.63;;;;;;;-144.47;27.53;52820.34;5035194;28;20385;-88
2022/07/25 10:22:41;;;;;;;8.18;5.22;;;;;;;-144.47;27.15;52858.06;5010743;28;20033;-88
2022/07/25 10:25:30;;;;;;;13.82;5.68;;;;;;;-144.47;26.74;52858.06;5038848;28;20104;-87
2022/07/25 10:28:18;;;;;;;10.00;5.45;;;;;;;-144.47;26.04;52899.78;5021994;28;20503;-88
2022/07/25 10:30:45;;;;;;;9.13;5.07;;;;;;;-144.47;26.11;52866.03;4996642;28;20057;-89
2022/07/25 10:33:27;;;;;;;;;;;;;;;;;;;;;
2022/07/25 10:36:04;;;;;;;20.30;5.05;;;;;;;-144.47;26.29;52891.84;5041685;28;20020;-89
2022/07/25 10:38:35;;;;;;;11.95;4.97;;;;;;;-144.47;26.56;52911.69;4996623;28;20386;-88
2022/07/25 10:41:27;;;;;;;13.95;5.78;;;;;;;-144.47;26.74;52915.69;5015524;28;20041;-88
2022/07/25 10:44:12;;;;;;;24.60;5.72;;;;;;;-144.47;26.44;52852.13;5027233;28;20105;-88
2022/07/25 10:46:45;;;;;;;8.35;4.88;;;;;;;-144.47;26.54;52873.97;5015125;28;20013;-88
2022/07/25 10:49:29;;;;;;;11.70;5.25;;;;;;;-144.47;26.38;52881.91;5019856;28;20021;-88
2022/07/25 10:52:01;;;;;;;7.43;4.97;;;;;;;-144.47;26.20;52840.19;5037402;28;20021;-89
2022/07/25 10:54:41;;;;;;;15.35;5.68;;;;;;;-144.47;25.99;52856.09;5031373;28;20018;-87
2022/07/25 10:57:15;;;;;;;15.98;5.40;;;;;;;-144.47;25.69;52871.97;5017747;28;20087;-89
2022/07/25 10:59:41;;;;;;;8.95;5.35;;;;;;;-144.47;25.63;52854.09;5035207;28;20083;-88
2022/07/25 11:02:16;;;;;;;15.85;4.93;;;;;;;-144.47;24.94;52899.78;5004073;28;20093;-87
2022/07/25 11:05:10;;;;;;;14.65;5.50;;;;;;;-144.47;25.19;52844.19;5000623;28;20052;-88
2022/07/25 11:07:52;;;;;;;14.77;4.80;;;;;;;-144.47;25.10;52848.16;5005560;28;20037;-88
2022/07/25 11:10:25;;;;;;;19.40;5.82;;;;;;;-144.47;25.01;52816.38;5037942;28;20495;-88
2022/07/25 11:13:11;;;;;;;9.52;5.28;;;;;;;-144.47;24.97;52818.34;5021394;28;20106;-88
2022/07/25 11:15:40;;;;;;;14.93;4.93;;;;;;;-144.47;25.24;52848.16;5037117;28;20024;-89